KBNW/BNW METAR and TAF weather

Enter ICAO airport designator
Station Type Date Time Source
KBNW METAR 2019/02/23 02:35 UTC NOAA

KBNW 230235Z AUTO 09009KT 10SM -UP OVC036 M02/M04 A3013 RMK AO2


Station Type Date Time Source
KBNW Decoded METAR 2019/02/23 02:35 UTC NOAA

Boone Municipal, IA, United States (KBNW) 42-03N 093-51W
Feb 22, 2019 - 09:35 PM EST / 2019.02.23 0235 UTC
Wind: from the E (090 degrees) at 10 MPH (9 KT):0
Visibility: 10 mile(s):0
Sky conditions: overcast
Weather: light precipitation
Temperature: 28 F (-2 C)
Windchill: 19 F (-7 C):1
Dew Point: 24 F (-4 C)
Relative Humidity: 86%
Pressure (altimeter): 30.13 in. Hg (1020 hPa)
ob: KBNW 230235Z AUTO 09009KT 10SM -UP OVC036 M02/M04 A3013 RMK AO2
cycle: 2

Station Type Date Time Source
KBNW TAF UTC NOAA

Error!


Example: see airport list